Time;durP1;ratioP1;P1;durP2;ratioP2;P2;SDS_P1;SDS_P2;PMS_P1;PMS_P2;Temp;Humidity;BMP_temperature;BMP_pressure;BME280_temperature;BME280_humidity;BME280_pressure;Samples;Min_cycle;Max_cycle;Signal;HPM_P1;HPM_P2
2023/12/04 00:01:08;;;;;;;25.20;23.40;;;0.80;21.80;;;;;;4958194;28;20183;-80
2023/12/04 00:03:34;;;;;;;23.50;21.80;;;1.10;21.70;;;;;;4957994;28;20178;-81
2023/12/04 00:05:59;;;;;;;24.50;22.80;;;1.40;20.60;;;;;;4974960;28;20203;-80
2023/12/04 00:08:25;;;;;;;24.37;22.57;;;1.10;20.60;;;;;;4978601;28;20429;-81
2023/12/04 00:10:51;;;;;;;23.73;22.03;;;0.90;20.90;;;;;;4977380;28;20746;-81
2023/12/04 00:13:17;;;;;;;26.00;24.15;;;0.70;21.60;;;;;;4977163;28;20173;-80
2023/12/04 00:15:43;;;;;;;23.77;22.07;;;0.90;21.80;;;;;;4993218;28;20544;-81
2023/12/04 00:18:09;;;;;;;24.60;22.87;;;0.90;21.20;;;;;;4992558;28;20181;-81
2023/12/04 00:20:35;;;;;;;25.03;23.17;;;1.00;21.30;;;;;;4975319;28;20421;-80
2023/12/04 00:23:01;;;;;;;25.00;23.20;;;1.00;21.20;;;;;;4975190;28;20259;-80
2023/12/04 00:25:26;;;;;;;23.47;21.73;;;1.10;20.60;;;;;;4993476;28;20429;-80
2023/12/04 00:27:52;;;;;;;23.33;21.67;;;1.20;20.80;;;;;;4976950;28;20193;-80
2023/12/04 00:30:17;;;;;;;26.17;24.30;;;1.20;19.80;;;;;;4974614;28;20193;-80
2023/12/04 00:32:43;;;;;;;24.90;23.13;;;1.20;20.20;;;;;;4976178;28;20669;-80
2023/12/04 00:35:08;;;;;;;23.97;22.27;;;1.20;20.50;;;;;;4976567;28;20713;-79
2023/12/04 00:37:38;;;;;;;24.50;22.77;;;1.10;20.60;;;;;;4977472;28;20204;-79
2023/12/04 00:40:04;;;;;;;22.47;20.80;;;1.30;20.60;;;;;;4993270;28;20254;-80
2023/12/04 00:42:30;;;;;;;23.27;21.67;;;1.20;19.90;;;;;;4977213;28;20426;-80
2023/12/04 00:44:58;;;;;;;23.87;22.20;;;1.40;20.40;;;;;;4989591;28;20508;-80
2023/12/04 00:47:24;;;;;;;23.27;21.67;;;1.50;19.80;;;;;;4992288;28;20270;-80
2023/12/04 00:49:49;;;;;;;23.87;22.00;;;1.70;19.60;;;;;;4980933;28;20457;-79
2023/12/04 00:52:15;;;;;;;22.93;21.33;;;1.60;19.20;;;;;;4977630;28;20179;-79
2023/12/04 00:54:40;;;;;;;21.97;20.47;;;1.50;19.50;;;;;;4976801;28;20978;-80
2023/12/04 00:57:06;;;;;;;21.47;20.07;;;1.40;19.40;;;;;;4979447;28;20569;-81
2023/12/04 00:59:32;;;;;;;23.33;21.73;;;1.10;19.90;;;;;;4978895;28;20205;-80
2023/12/04 01:01:57;;;;;;;22.50;20.90;;;0.80;20.40;;;;;;4980045;28;20174;-80
2023/12/04 01:04:23;;;;;;;23.20;21.50;;;0.70;21.00;;;;;;4980266;28;20185;-79
2023/12/04 01:06:48;;;;;;;22.53;20.93;;;0.80;21.20;;;;;;4980516;28;20289;-80
2023/12/04 01:09:14;;;;;;;24.50;22.70;;;1.00;21.40;;;;;;4981169;28;20252;-80
2023/12/04 01:11:39;;;;;;;23.90;22.20;;;1.10;21.00;;;;;;4980851;28;20208;-79
2023/12/04 01:14:05;;;;;;;23.80;22.00;;;1.20;21.20;;;;;;4980760;28;20626;-79
2023/12/04 01:16:31;;;;;;;22.63;21.10;;;1.00;21.20;;;;;;4980737;28;20232;-80
2023/12/04 01:18:56;;;;;;;24.63;22.70;;;0.90;21.20;;;;;;4980392;28;20190;-80
2023/12/04 01:21:22;;;;;;;22.67;21.10;;;0.90;20.80;;;;;;4998129;28;20701;-80
2023/12/04 01:23:47;;;;;;;23.27;21.47;;;1.00;20.50;;;;;;4980161;28;20313;-81
2023/12/04 01:26:13;;;;;;;22.33;20.77;;;1.00;20.70;;;;;;4980088;28;20420;-81
2023/12/04 01:28:38;;;;;;;21.90;20.33;;;0.90;21.10;;;;;;4980315;28;20228;-81
2023/12/04 01:31:04;;;;;;;22.30;20.80;;;0.90;21.20;;;;;;4981254;28;20178;-80
2023/12/04 01:33:30;;;;;;;22.73;21.13;;;1.00;21.20;;;;;;4980391;28;20205;-80
2023/12/04 01:35:55;;;;;;;23.17;21.07;;;1.00;20.10;;;;;;4961888;28;20496;-80
2023/12/04 01:38:21;;;;;;;23.27;21.67;;;1.00;20.40;;;;;;4978198;28;20653;-81
2023/12/04 01:40:47;;;;;;;23.30;21.40;;;0.60;20.50;;;;;;4961381;28;20186;-81
2023/12/04 01:43:12;;;;;;;23.10;21.50;;;0.70;20.90;;;;;;4977152;28;20253;-80
2023/12/04 01:45:38;;;;;;;23.60;21.90;;;0.90;21.00;;;;;;4977679;28;20198;-80
2023/12/04 01:48:06;;;;;;;22.00;20.40;;;0.90;19.80;;;;;;4979267;28;20248;-80
2023/12/04 01:50:32;;;;;;;23.27;21.57;;;0.80;20.30;;;;;;4960914;28;20182;-80
2023/12/04 01:52:58;;;;;;;22.52;21.00;;;0.70;20.40;;;;;;4961046;28;20768;-80
2023/12/04 01:55:23;;;;;;;23.00;21.40;;;0.60;20.60;;;;;;4973515;28;20206;-80
2023/12/04 01:57:49;;;;;;;22.07;20.63;;;0.50;21.10;;;;;;4976776;28;20641;-80
2023/12/04 02:00:15;;;;;;;21.83;20.27;;;0.40;21.00;;;;;;4975105;28;20708;-79
2023/12/04 02:02:44;;;;;;;22.13;20.60;;;0.70;21.00;;;;;;4996576;28;20186;-80
2023/12/04 02:05:12;;;;;;;23.33;21.70;;;0.90;20.80;;;;;;4980543;28;20887;-80
2023/12/04 02:07:38;;;;;;;21.27;19.67;;;0.90;20.10;;;;;;4997977;28;20413;-80
2023/12/04 02:10:04;;;;;;;21.13;19.73;;;0.90;20.00;;;;;;4980346;28;20405;-80
2023/12/04 02:12:30;;;;;;;20.63;19.23;;;0.90;20.10;;;;;;4980079;28;20414;-81
2023/12/04 02:14:56;;;;;;;20.27;18.80;;;0.40;20.80;;;;;;4980234;28;20552;-80
2023/12/04 02:17:22;;;;;;;21.98;20.40;;;0.40;21.00;;;;;;4980178;28;20420;-81
2023/12/04 02:19:48;;;;;;;20.95;19.55;;;0.40;21.10;;;;;;4979659;28;20178;-80
2023/12/04 02:22:14;;;;;;;20.70;19.20;;;0.30;21.50;;;;;;4979900;28;20559;-80
2023/12/04 02:24:39;;;;;;;20.37;19.00;;;0.50;21.00;;;;;;4979329;28;20507;-81
2023/12/04 02:27:15;;;;;;;21.17;19.67;;;0.50;20.70;;;;;;4978833;28;20286;-80
2023/12/04 02:29:47;;;;;;;21.40;19.92;;;0.30;21.70;;;;;;4978826;28;20550;-80
2023/12/04 02:32:16;;;;;;;20.70;19.30;;;0.40;21.10;;;;;;4979003;28;20587;-80
2023/12/04 02:34:43;;;;;;;22.83;21.27;;;0.40;21.50;;;;;;4979265;28;20181;-80
2023/12/04 02:37:10;;;;;;;22.13;20.52;;;0.20;21.80;;;;;;4980104;28;20217;-80
2023/12/04 02:39:37;;;;;;;22.52;20.92;;;0.10;22.10;;;;;;4979885;28;20236;-81
2023/12/04 02:42:03;;;;;;;21.92;20.42;;;0.10;22.20;;;;;;4996087;28;20182;-81
2023/12/04 02:44:28;;;;;;;21.63;20.13;;;0.10;22.30;;;;;;4978942;28;20217;-80
2023/12/04 02:46:54;;;;;;;21.50;20.00;;;0.20;22.20;;;;;;4996506;28;20194;-80
2023/12/04 02:49:19;;;;;;;23.20;21.30;;;0.10;22.20;;;;;;4979415;28;20209;-80
2023/12/04 02:51:45;;;;;;;21.93;20.43;;;0.00;22.30;;;;;;4979890;28;20568;-80
2023/12/04 02:54:10;;;;;;;23.03;21.50;;;0.00;22.60;;;;;;4979061;28;20525;-79
2023/12/04 02:56:36;;;;;;;23.97;22.27;;;0.20;22.50;;;;;;4982944;28;20198;-79
2023/12/04 02:59:01;;;;;;;20.57;19.23;;;0.30;21.90;;;;;;5000880;28;20249;-79
2023/12/04 03:01:27;;;;;;;24.50;22.70;;;0.40;21.70;;;;;;4968961;28;20181;-79
2023/12/04 03:03:52;;;;;;;22.23;20.73;;;0.50;20.90;;;;;;4968067;28;20178;-79
2023/12/04 03:06:18;;;;;;;24.90;23.07;;;0.50;21.10;;;;;;4985635;28;20217;-80
2023/12/04 03:08:43;;;;;;;23.97;22.30;;;0.50;21.30;;;;;;4968079;28;20210;-79
2023/12/04 03:14:31;;;;;;;23.00;21.45;;;0.60;21.00;;;;;;4983278;28;20174;-80
2023/12/04 03:16:57;;;;;;;24.13;22.43;;;0.50;20.60;;;;;;4964372;29;20202;-81
2023/12/04 03:19:22;;;;;;;24.97;23.17;;;0.30;21.30;;;;;;4961679;29;20226;-81
2023/12/04 03:21:48;;;;;;;23.87;22.17;;;0.10;21.40;;;;;;4963038;28;20252;-81
2023/12/04 03:24:13;;;;;;;22.37;20.60;;;0.10;21.90;;;;;;4963058;28;20237;-81
2023/12/04 03:26:40;;;;;;;24.00;22.40;;;0.10;21.80;;;;;;4961962;28;20229;-80
2023/12/04 03:29:05;;;;;;;24.03;22.33;;;0.30;21.40;;;;;;4960929;28;20296;-81
2023/12/04 03:31:31;;;;;;;22.37;20.87;;;0.50;21.20;;;;;;4978779;28;20445;-81
2023/12/04 03:33:57;;;;;;;24.07;22.40;;;0.30;20.90;;;;;;4962177;28;20654;-80
2023/12/04 03:36:22;;;;;;;22.23;20.73;;;0.50;21.30;;;;;;4962957;28;20186;-81
2023/12/04 03:38:48;;;;;;;23.27;21.67;;;0.60;20.70;;;;;;4977230;28;20275;-81
2023/12/04 03:41:17;;;;;;;22.60;21.13;;;0.70;20.40;;;;;;4959921;28;20315;-81
2023/12/04 03:43:42;;;;;;;22.77;21.30;;;0.60;20.50;;;;;;4977549;28;20251;-81
2023/12/04 03:46:11;;;;;;;22.07;20.60;;;0.50;21.40;;;;;;4977720;28;20453;-80
2023/12/04 03:48:36;;;;;;;24.17;22.48;;;0.80;20.30;;;;;;4960683;28;20357;-81
2023/12/04 03:51:02;;;;;;;23.40;21.80;;;1.10;20.40;;;;;;4960722;28;20213;-80
2023/12/04 03:53:31;;;;;;;23.67;21.97;;;1.30;20.00;;;;;;4960037;28;20888;-82
2023/12/04 03:55:59;;;;;;;23.70;21.80;;;1.40;19.20;;;;;;4975788;28;20212;-80
2023/12/04 03:58:25;;;;;;;22.17;20.77;;;1.40;19.20;;;;;;4957329;28;21008;-80
2023/12/04 04:00:50;;;;;;;22.23;20.63;;;1.30;19.00;;;;;;4976367;28;20701;-80
2023/12/04 04:03:16;;;;;;;22.57;20.97;;;1.20;19.10;;;;;;4976455;28;20595;-81
2023/12/04 04:05:42;;;;;;;24.07;22.37;;;1.20;19.10;;;;;;4977923;28;20200;-80
2023/12/04 04:08:08;;;;;;;23.00;21.50;;;1.20;18.60;;;;;;4979950;28;20197;-81
2023/12/04 04:10:34;;;;;;;22.30;20.80;;;1.20;19.00;;;;;;4978624;28;20273;-80
2023/12/04 04:12:59;;;;;;;22.70;21.10;;;1.20;19.20;;;;;;4979283;28;20459;-80
2023/12/04 04:15:25;;;;;;;23.50;21.83;;;0.90;19.20;;;;;;4979492;28;20200;-81
2023/12/04 04:17:51;;;;;;;22.80;21.30;;;0.70;19.90;;;;;;4979561;28;20181;-81
2023/12/04 04:20:17;;;;;;;22.10;20.70;;;0.80;19.80;;;;;;4979378;28;20424;-80
2023/12/04 04:22:43;;;;;;;23.07;21.50;;;0.50;20.20;;;;;;4981392;28;20421;-80
2023/12/04 04:25:09;;;;;;;22.00;20.60;;;0.40;20.70;;;;;;4998741;28;20198;-80
2023/12/04 04:27:35;;;;;;;22.90;21.30;;;0.30;21.30;;;;;;4982560;28;20273;-81
2023/12/04 04:30:01;;;;;;;24.90;23.03;;;0.10;21.10;;;;;;4982439;28;20599;-80
2023/12/04 04:32:26;;;;;;;24.63;22.50;;;0.10;21.30;;;;;;4982268;28;20933;-80
2023/12/04 04:34:52;;;;;;;23.63;21.93;;;0.00;21.80;;;;;;4982393;28;20177;-80
2023/12/04 04:37:19;;;;;;;22.10;20.70;;;0.10;22.10;;;;;;5000387;28;20174;-81
2023/12/04 04:39:44;;;;;;;22.88;21.27;;;0.40;21.70;;;;;;5000108;28;20213;-81
2023/12/04 04:42:10;;;;;;;21.00;19.70;;;0.80;21.20;;;;;;4982524;28;20189;-80
2023/12/04 04:44:35;;;;;;;22.40;20.80;;;0.80;20.10;;;;;;4982932;28;20178;-81
2023/12/04 04:47:01;;;;;;;23.67;22.07;;;0.60;20.10;;;;;;4982786;28;20194;-82
2023/12/04 04:49:26;;;;;;;21.17;19.73;;;0.60;20.60;;;;;;5000159;28;20188;-81
2023/12/04 04:51:52;;;;;;;22.03;20.63;;;0.40;20.40;;;;;;4998948;28;20579;-80
2023/12/04 04:54:17;;;;;;;21.13;19.80;;;0.30;21.00;;;;;;4982504;28;20536;-80
2023/12/04 04:56:43;;;;;;;21.77;20.33;;;0.30;20.70;;;;;;4981897;28;20196;-81
2023/12/04 04:59:08;;;;;;;21.93;20.47;;;0.60;20.90;;;;;;4982196;28;20190;-80
2023/12/04 05:01:34;;;;;;;20.53;19.23;;;0.50;20.80;;;;;;4989999;28;20255;-81
2023/12/04 05:03:59;;;;;;;22.57;21.07;;;0.70;20.40;;;;;;5001639;28;20182;-81
2023/12/04 05:06:25;;;;;;;23.20;21.70;;;1.00;21.10;;;;;;5001734;28;20205;-81
2023/12/04 05:08:52;;;;;;;22.40;21.00;;;1.30;19.50;;;;;;5003259;28;20213;-80
2023/12/04 05:11:18;;;;;;;22.50;20.70;;;1.40;19.20;;;;;;4994502;28;20471;-81
2023/12/04 05:13:45;;;;;;;20.80;19.33;;;1.50;18.80;;;;;;4984966;28;20414;-81
2023/12/04 05:16:11;;;;;;;22.33;20.87;;;1.60;19.00;;;;;;4983220;28;20437;-81
2023/12/04 05:18:38;;;;;;;22.80;21.20;;;1.70;18.70;;;;;;4982563;28;20440;-81
2023/12/04 05:21:08;;;;;;;21.47;20.07;;;1.70;18.80;;;;;;4982503;28;20273;-82
2023/12/04 05:23:38;;;;;;;22.37;20.87;;;1.90;18.80;;;;;;4982563;28;20424;-82
2023/12/04 05:26:08;;;;;;;21.63;20.33;;;2.00;18.70;;;;;;4977064;28;20452;-81
2023/12/04 05:28:34;;;;;;;20.93;19.30;;;2.10;18.50;;;;;;4983766;28;20495;-80
2023/12/04 05:31:00;;;;;;;21.10;19.70;;;2.20;17.50;;;;;;4982558;28;20916;-80
2023/12/04 05:33:25;;;;;;;21.03;19.63;;;2.20;17.30;;;;;;4981767;28;20508;-80
2023/12/04 05:35:52;;;;;;;18.40;17.10;;;2.10;17.20;;;;;;4982058;28;20437;-81
2023/12/04 05:38:17;;;;;;;20.67;19.17;;;2.00;18.10;;;;;;4981654;28;20186;-80
2023/12/04 05:40:43;;;;;;;20.63;19.13;;;2.10;17.50;;;;;;4981827;28;20483;-81
2023/12/04 05:43:09;;;;;;;21.73;20.17;;;2.10;17.90;;;;;;4997809;28;20433;-81
2023/12/04 05:45:34;;;;;;;20.63;19.23;;;2.10;18.50;;;;;;4982060;28;20212;-81
2023/12/04 05:48:00;;;;;;;20.40;19.00;;;2.00;17.80;;;;;;4982261;28;20213;-80
2023/12/04 05:50:26;;;;;;;20.63;19.23;;;2.00;18.30;;;;;;4981416;28;20174;-81
2023/12/04 05:52:51;;;;;;;19.60;18.30;;;2.20;17.70;;;;;;4981497;28;20181;-81
2023/12/04 05:55:17;;;;;;;19.87;18.27;;;2.20;17.30;;;;;;4981254;28;20202;-81
2023/12/04 05:57:44;;;;;;;18.43;17.13;;;2.30;17.10;;;;;;4982341;28;20205;-81
2023/12/04 06:00:13;;;;;;;18.13;17.00;;;2.30;16.70;;;;;;4994310;28;20807;-81
2023/12/04 06:02:43;;;;;;;20.40;19.10;;;2.30;16.10;;;;;;4997314;28;20782;-81
2023/12/04 06:05:09;;;;;;;19.23;17.83;;;2.20;16.90;;;;;;5001592;28;20412;-80
2023/12/04 06:07:36;;;;;;;19.07;17.80;;;2.10;16.90;;;;;;5001317;28;20462;-81
2023/12/04 06:10:06;;;;;;;16.80;15.80;;;2.20;16.90;;;;;;4998973;28;20949;-81
2023/12/04 06:12:32;;;;;;;18.87;17.53;;;2.30;16.60;;;;;;4980418;28;20419;-81
2023/12/04 06:15:00;;;;;;;18.97;17.57;;;2.30;16.10;;;;;;4983871;28;20409;-81
2023/12/04 06:17:27;;;;;;;18.47;17.27;;;2.10;16.80;;;;;;4982587;28;20189;-81
2023/12/04 06:19:53;;;;;;;19.93;18.63;;;1.60;17.90;;;;;;4995258;28;20427;-80
2023/12/04 06:22:21;;;;;;;19.30;17.80;;;1.50;18.60;;;;;;5000907;28;20424;-80
2023/12/04 06:24:47;;;;;;;19.80;18.50;;;1.30;18.60;;;;;;4985146;28;20433;-80
2023/12/04 06:27:16;;;;;;;18.93;17.80;;;1.10;18.30;;;;;;4988211;28;20574;-80
2023/12/04 06:29:43;;;;;;;19.50;18.10;;;0.90;19.20;;;;;;5008258;28;20492;-81
2023/12/04 06:32:10;;;;;;;19.80;18.50;;;0.90;20.10;;;;;;5004069;28;20454;-82
2023/12/04 06:34:36;;;;;;;19.77;18.48;;;1.00;19.30;;;;;;5013883;28;20857;-80
2023/12/04 06:37:02;;;;;;;21.40;19.87;;;1.00;19.50;;;;;;5012552;28;20206;-80
2023/12/04 06:39:33;;;;;;;21.63;19.70;;;1.30;19.10;;;;;;4987710;28;20859;-80
2023/12/04 06:42:00;;;;;;;21.13;19.53;;;1.50;18.80;;;;;;4984219;28;20424;-80
2023/12/04 06:44:25;;;;;;;21.00;19.35;;;1.60;18.50;;;;;;4990677;28;20437;-80
2023/12/04 06:46:52;;;;;;;20.90;19.53;;;1.70;18.70;;;;;;4992112;28;20214;-79
2023/12/04 06:49:20;;;;;;;20.83;19.20;;;1.80;18.50;;;;;;4983640;28;20212;-79
2023/12/04 06:51:46;;;;;;;19.80;18.50;;;1.80;18.00;;;;;;4996041;28;20487;-79
2023/12/04 06:54:13;;;;;;;19.63;18.07;;;2.00;18.30;;;;;;4962377;28;20882;-80
2023/12/04 06:56:39;;;;;;;22.70;20.73;;;1.70;18.00;;;;;;4957892;28;20450;-80
2023/12/04 06:59:07;;;;;;;19.63;18.10;;;1.10;18.90;;;;;;4988432;28;20439;-82
2023/12/04 07:01:43;;;;;;;21.87;20.23;;;0.50;20.10;;;;;;4982084;28;20236;-83
2023/12/04 07:04:09;;;;;;;19.63;18.43;;;0.50;21.00;;;;;;4954106;28;20449;-82
2023/12/04 07:06:46;;;;;;;18.70;17.17;;;0.60;21.00;;;;;;4984960;28;20445;-82
2023/12/04 07:09:12;;;;;;;20.03;18.63;;;0.70;20.50;;;;;;4953439;28;20541;-81
2023/12/04 07:11:38;;;;;;;20.60;19.20;;;0.70;20.00;;;;;;4979668;28;20485;-81
2023/12/04 07:14:04;;;;;;;21.50;20.10;;;0.60;20.20;;;;;;4962259;28;20432;-81
2023/12/04 07:16:30;;;;;;;19.80;18.60;;;0.70;20.40;;;;;;4973914;28;20207;-82
2023/12/04 07:18:56;;;;;;;21.13;19.63;;;0.80;20.30;;;;;;4961624;28;20202;-82
2023/12/04 07:21:34;;;;;;;24.03;22.17;;;0.80;20.00;;;;;;4961540;28;20914;-81
2023/12/04 07:24:00;;;;;;;20.20;18.97;;;0.90;20.60;;;;;;4965927;28;20422;-82
2023/12/04 07:26:26;;;;;;;22.07;20.67;;;1.10;20.80;;;;;;4964668;28;20449;-81
2023/12/04 07:28:51;;;;;;;21.53;19.67;;;1.50;20.10;;;;;;4961317;28;20999;-81
2023/12/04 07:31:20;;;;;;;20.87;19.43;;;1.70;19.00;;;;;;4977334;28;20186;-82
2023/12/04 07:33:48;;;;;;;21.77;20.13;;;2.00;18.90;;;;;;4964909;28;20457;-81
2023/12/04 07:36:14;;;;;;;21.93;20.23;;;2.10;18.70;;;;;;4960620;28;20445;-82
2023/12/04 07:38:40;;;;;;;20.87;19.43;;;2.00;18.90;;;;;;4969979;28;20430;-81
2023/12/04 07:41:06;;;;;;;22.53;20.60;;;2.00;18.90;;;;;;4960738;28;20461;-82
2023/12/04 07:43:35;;;;;;;20.70;19.03;;;2.10;19.00;;;;;;4974705;28;20241;-81
2023/12/04 07:46:00;;;;;;;23.00;21.03;;;2.10;18.10;;;;;;4978042;28;20473;-81
2023/12/04 07:48:30;;;;;;;23.27;21.30;;;2.20;18.30;;;;;;4987025;28;20799;-81
2023/12/04 07:50:56;;;;;;;19.97;18.13;;;2.20;18.20;;;;;;4968624;28;20182;-81
2023/12/04 07:53:23;;;;;;;21.03;19.63;;;2.10;17.80;;;;;;4958598;28;20509;-81
2023/12/04 07:55:51;;;;;;;21.47;19.83;;;1.60;18.30;;;;;;4982037;28;20434;-82
2023/12/04 07:58:17;;;;;;;26.93;24.27;;;1.30;18.50;;;;;;4965335;28;20421;-81
2023/12/04 08:00:44;;;;;;;21.83;20.23;;;1.00;19.60;;;;;;4969313;28;20447;-80
2023/12/04 08:03:09;;;;;;;20.03;18.73;;;0.90;20.30;;;;;;4967721;28;20454;-81
2023/12/04 08:05:35;;;;;;;20.90;19.10;;;1.00;19.60;;;;;;4959827;29;20470;-80
2023/12/04 08:08:00;;;;;;;20.40;18.97;;;1.10;20.00;;;;;;4941789;29;20207;-80
2023/12/04 08:10:26;;;;;;;20.10;18.60;;;0.80;20.20;;;;;;4942018;29;20187;-81
2023/12/04 08:12:52;;;;;;;21.13;19.73;;;0.80;20.60;;;;;;4959184;29;20643;-79
2023/12/04 08:15:17;;;;;;;20.93;19.23;;;0.60;21.50;;;;;;4941975;29;20453;-79
2023/12/04 08:17:43;;;;;;;22.90;21.07;;;0.70;21.50;;;;;;4959140;29;20217;-79
2023/12/04 08:20:13;;;;;;;22.13;20.30;;;0.90;21.70;;;;;;4944010;29;20180;-78
2023/12/04 08:22:40;;;;;;;21.10;19.58;;;1.10;20.90;;;;;;4964848;29;20182;-79
2023/12/04 08:25:05;;;;;;;22.73;20.93;;;1.20;21.20;;;;;;4965321;29;20167;-79
2023/12/04 08:27:32;;;;;;;22.03;20.43;;;1.30;20.70;;;;;;4943375;29;20433;-79
2023/12/04 08:29:58;;;;;;;22.77;20.37;;;1.40;20.70;;;;;;4962032;29;20762;-79
2023/12/04 08:32:26;;;;;;;20.83;19.53;;;1.50;20.40;;;;;;4959332;29;20411;-79
2023/12/04 08:34:51;;;;;;;21.40;19.40;;;1.60;20.30;;;;;;4941302;29;20175;-79
2023/12/04 08:37:19;;;;;;;20.67;19.27;;;1.70;19.40;;;;;;4959359;29;20416;-79
2023/12/04 08:39:44;;;;;;;19.60;18.20;;;1.60;19.50;;;;;;4959695;29;20563;-80
2023/12/04 08:42:11;;;;;;;22.20;20.70;;;1.50;19.30;;;;;;4957596;29;20449;-80
2023/12/04 08:44:37;;;;;;;19.63;18.33;;;1.30;19.80;;;;;;4957084;29;20247;-79
2023/12/04 08:47:02;;;;;;;20.50;19.10;;;1.20;20.70;;;;;;4941114;29;20474;-80
2023/12/04 08:49:28;;;;;;;18.93;17.73;;;0.80;20.80;;;;;;4959727;29;20482;-80
2023/12/04 08:51:53;;;;;;;18.13;16.80;;;0.80;20.80;;;;;;4958774;29;20546;-79
2023/12/04 08:54:19;;;;;;;20.03;18.73;;;0.70;20.50;;;;;;4958239;29;20230;-79
2023/12/04 08:56:44;;;;;;;18.07;16.87;;;0.70;20.70;;;;;;4958452;29;20246;-79
2023/12/04 08:59:10;;;;;;;19.83;18.60;;;0.50;21.40;;;;;;4947676;28;20318;-79
2023/12/04 09:01:36;;;;;;;20.73;19.33;;;0.30;21.90;;;;;;4959840;28;20221;-79
2023/12/04 09:04:01;;;;;;;22.23;20.73;;;0.20;22.70;;;;;;4959260;28;20175;-79
2023/12/04 09:06:27;;;;;;;20.83;19.53;;;0.40;23.80;;;;;;4958911;28;20202;-79
2023/12/04 09:08:53;;;;;;;19.70;18.50;;;0.60;22.80;;;;;;4960903;28;20214;-79
2023/12/04 09:11:19;;;;;;;20.83;19.23;;;0.70;23.20;;;;;;4963935;28;20193;-80
2023/12/04 09:13:45;;;;;;;21.00;19.50;;;0.90;24.00;;;;;;4964084;28;20417;-80
2023/12/04 09:16:10;;;;;;;21.07;19.70;;;1.00;22.00;;;;;;4992869;23;20228;-61
2023/12/04 09:18:36;;;;;;;19.87;18.33;;;1.00;21.70;;;;;;5003039;28;20432;-61
2023/12/04 09:21:02;;;;;;;21.50;19.90;;;1.10;22.00;;;;;;4990959;28;20181;-60
2023/12/04 09:23:27;;;;;;;21.03;19.37;;;1.30;21.10;;;;;;5006848;28;20182;-61
2023/12/04 09:25:53;;;;;;;21.63;20.17;;;1.30;20.90;;;;;;5011668;28;20196;-47
2023/12/04 09:28:19;;;;;;;17.97;16.77;;;1.30;20.90;;;;;;5016390;28;20201;-60
2023/12/04 09:30:44;;;;;;;20.13;18.63;;;1.20;21.20;;;;;;5008035;28;20223;-60
2023/12/04 09:33:10;;;;;;;23.20;20.70;;;1.30;21.50;;;;;;5011686;28;20185;-60
2023/12/04 09:35:36;;;;;;;19.13;17.63;;;1.40;21.30;;;;;;5008324;28;20510;-60
2023/12/04 09:38:02;;;;;;;19.07;17.70;;;1.60;21.30;;;;;;5011852;28;20189;-60
2023/12/04 09:40:27;;;;;;;18.77;17.57;;;1.70;21.10;;;;;;5004829;28;20285;-58
2023/12/04 09:42:53;;;;;;;17.23;16.17;;;1.80;20.80;;;;;;5000241;28;20423;-61
2023/12/04 09:45:20;;;;;;;19.17;17.87;;;1.40;20.90;;;;;;5008023;28;20185;-61
2023/12/04 09:47:48;;;;;;;21.20;19.67;;;1.50;21.70;;;;;;5033788;28;20431;-62
2023/12/04 09:50:17;;;;;;;22.23;20.40;;;1.80;21.60;;;;;;5009948;28;20428;-61
2023/12/04 09:52:42;;;;;;;20.57;18.90;;;2.10;21.20;;;;;;5006445;28;20429;-61
2023/12/04 09:55:09;;;;;;;17.60;16.30;;;2.40;21.30;;;;;;5007900;28;20449;-60
2023/12/04 09:57:35;;;;;;;17.10;15.80;;;2.50;20.80;;;;;;5007940;28;20656;-51
2023/12/04 10:00:03;;;;;;;17.23;16.13;;;2.60;20.70;;;;;;5011772;28;20430;-46
2023/12/04 10:02:29;;;;;;;16.53;15.43;;;2.60;20.50;;;;;;5004624;28;20443;-58
2023/12/04 10:04:55;;;;;;;16.80;15.73;;;2.40;20.10;;;;;;5012209;28;20911;-60
2023/12/04 10:07:21;;;;;;;18.63;16.90;;;2.00;21.60;;;;;;5001897;28;20475;-61
2023/12/04 10:09:46;;;;;;;15.57;14.47;;;2.00;22.10;;;;;;5013287;28;20345;-60
2023/12/04 10:12:12;;;;;;;17.27;16.07;;;2.20;21.20;;;;;;5004435;28;20934;-58
2023/12/04 10:14:38;;;;;;;19.10;17.57;;;2.30;21.30;;;;;;4999292;28;20680;-60
2023/12/04 10:17:17;;;;;;;17.43;16.20;;;2.40;21.50;;;;;;5014969;28;20679;-47
2023/12/04 10:19:43;;;;;;;16.50;15.33;;;2.60;21.80;;;;;;5011662;28;20191;-45
2023/12/04 10:22:13;;;;;;;18.37;17.07;;;2.70;21.10;;;;;;5014405;28;20432;-44
2023/12/04 10:24:39;;;;;;;18.10;16.80;;;2.40;21.10;;;;;;5013920;28;20184;-46
2023/12/04 10:27:08;;;;;;;18.13;16.93;;;2.30;22.00;;;;;;5013722;28;20800;-47
2023/12/04 10:29:45;;;;;;;18.13;16.83;;;2.20;22.40;;;;;;5013539;28;20458;-50
2023/12/04 10:32:11;;;;;;;17.93;16.63;;;2.30;21.70;;;;;;5013471;28;20423;-61
2023/12/04 10:34:37;;;;;;;17.50;16.30;;;2.40;21.90;;;;;;5013254;28;20427;-58
2023/12/04 10:37:04;;;;;;;16.70;15.70;;;2.50;21.70;;;;;;5013981;28;20542;-60
2023/12/04 10:39:31;;;;;;;18.10;17.00;;;2.60;21.50;;;;;;5014999;28;20428;-60
2023/12/04 10:42:02;;;;;;;16.13;15.03;;;2.80;21.50;;;;;;5007062;28;20420;-61
2023/12/04 10:44:28;;;;;;;19.07;17.47;;;2.90;22.00;;;;;;5015219;28;20531;-56
2023/12/04 10:46:58;;;;;;;18.97;17.00;;;3.10;21.00;;;;;;5014877;28;20419;-58
2023/12/04 10:49:27;;;;;;;17.67;16.47;;;3.30;20.90;;;;;;5014842;28;20567;-59
2023/12/04 10:51:56;;;;;;;17.33;16.23;;;3.30;20.20;;;;;;5014732;28;20477;-46
2023/12/04 10:54:23;;;;;;;17.33;15.97;;;3.40;20.50;;;;;;5014903;28;20427;-60
2023/12/04 10:56:51;;;;;;;17.07;16.00;;;3.40;20.80;;;;;;5014541;28;20419;-59
2023/12/04 10:59:27;;;;;;;16.70;15.60;;;3.50;20.70;;;;;;5011057;28;20967;-60
2023/12/04 11:01:57;;;;;;;19.33;18.13;;;3.60;20.30;;;;;;5031683;28;21027;-59
2023/12/04 11:04:27;;;;;;;18.17;16.40;;;3.70;20.00;;;;;;5013809;28;20927;-60
2023/12/04 11:06:54;;;;;;;16.20;15.17;;;3.70;20.00;;;;;;5014470;28;20432;-60
2023/12/04 11:09:21;;;;;;;16.20;15.20;;;3.80;20.00;;;;;;5014696;28;21097;-60
2023/12/04 11:11:51;;;;;;;19.20;17.60;;;3.90;20.10;;;;;;5012142;28;20428;-60
2023/12/04 11:14:22;;;;;;;24.57;17.73;;;3.90;20.10;;;;;;5005267;28;20515;-58
2023/12/04 11:16:54;;;;;;;17.30;16.10;;;3.90;20.60;;;;;;5002516;28;20433;-58
2023/12/04 11:19:32;;;;;;;16.97;15.87;;;3.60;19.90;;;;;;5014071;28;20423;-58
2023/12/04 11:22:03;;;;;;;16.70;15.67;;;3.20;20.90;;;;;;5005174;28;20423;-60
2023/12/04 11:24:28;;;;;;;18.07;16.97;;;2.90;22.10;;;;;;5013928;28;20525;-56
2023/12/04 11:26:55;;;;;;;19.50;18.30;;;2.50;23.20;;;;;;5013220;28;20462;-60
2023/12/04 11:29:22;;;;;;;18.40;17.30;;;2.40;23.90;;;;;;5001916;28;20215;-61
2023/12/04 11:31:47;;;;;;;18.10;16.90;;;2.50;23.80;;;;;;5003484;28;20429;-60
2023/12/04 11:34:13;;;;;;;18.13;16.93;;;2.50;24.70;;;;;;5004813;28;20421;-60
2023/12/04 11:36:39;;;;;;;17.87;16.77;;;2.70;23.90;;;;;;4988524;28;20236;-44
2023/12/04 11:39:10;;;;;;;17.27;16.17;;;2.90;24.30;;;;;;4992662;28;20296;-47
2023/12/04 11:41:37;;;;;;;16.13;15.03;;;3.10;22.90;;;;;;5017245;28;20430;-44
2023/12/04 11:44:03;;;;;;;17.20;16.20;;;3.10;23.30;;;;;;5006194;28;20875;-46
2023/12/04 11:46:30;;;;;;;17.17;16.10;;;3.20;23.10;;;;;;5013710;28;20438;-59
2023/12/04 11:49:25;;;;;;;16.57;15.47;;;3.20;23.40;;;;;;4996208;28;20463;-59
2023/12/04 11:51:52;;;;;;;17.73;16.53;;;3.40;22.90;;;;;;4990919;28;20448;-49
2023/12/04 11:54:19;;;;;;;16.23;15.23;;;3.50;23.50;;;;;;4992345;28;20417;-46
2023/12/04 11:57:21;;;;;;;16.47;15.47;;;3.80;23.60;;;;;;5025518;28;20971;-45
2023/12/04 11:59:47;;;;;;;17.60;16.50;;;4.10;22.90;;;;;;5009773;28;20790;-48
2023/12/04 12:02:14;;;;;;;17.40;16.23;;;4.30;22.70;;;;;;5009967;28;20436;-43
2023/12/04 12:04:40;;;;;;;19.73;18.20;;;4.30;22.30;;;;;;5002187;28;20231;-44
2023/12/04 12:07:06;;;;;;;20.10;18.80;;;4.30;22.30;;;;;;5012915;28;20462;-45
2023/12/04 12:09:35;;;;;;;19.90;18.50;;;4.30;21.70;;;;;;5010970;28;20202;-49
2023/12/04 12:12:02;;;;;;;20.47;18.87;;;4.40;21.80;;;;;;5011921;28;20190;-46
2023/12/04 12:14:31;;;;;;;21.33;19.73;;;4.20;22.10;;;;;;5005602;28;20433;-45
2023/12/04 12:17:01;;;;;;;20.30;18.93;;;4.10;22.30;;;;;;4990408;28;20466;-50
2023/12/04 12:19:27;;;;;;;21.73;20.03;;;4.20;22.60;;;;;;4995269;28;20444;-45
2023/12/04 12:21:53;;;;;;;18.87;17.60;;;4.30;22.40;;;;;;4993410;28;20436;-50
2023/12/04 12:24:19;;;;;;;19.93;18.27;;;4.30;21.20;;;;;;5009199;28;20476;-46
2023/12/04 12:26:45;;;;;;;22.10;20.40;;;4.30;21.30;;;;;;4974952;28;20606;-47
2023/12/04 12:29:11;;;;;;;21.13;19.53;;;4.40;21.30;;;;;;5006946;28;20490;-47
2023/12/04 12:31:37;;;;;;;23.00;21.10;;;4.60;21.10;;;;;;5007876;28;20524;-46
2023/12/04 12:34:03;;;;;;;21.83;20.23;;;4.60;20.60;;;;;;5015228;28;20438;-50
2023/12/04 12:36:30;;;;;;;22.23;20.60;;;4.70;20.60;;;;;;4994684;28;20433;-46